Time;durP1;ratioP1;P1;durP2;ratioP2;P2;SDS_P1;SDS_P2;PMS_P1;PMS_P2;Temp;Humidity;BMP_temperature;BMP_pressure;BME280_temperature;BME280_humidity;BME280_pressure;Samples;Min_cycle;Max_cycle;Signal;HPM_P1;HPM_P2
2023/04/12 00:00:38;;;;;;;1.37;0.67;;;12.40;99.90;;;;;;5002629;28;20646;-34
2023/04/12 00:03:09;;;;;;;1.27;0.60;;;12.40;99.90;;;;;;5004087;28;20300;-34
2023/04/12 00:05:36;;;;;;;2.80;0.87;;;12.40;99.90;;;;;;5022135;28;20251;-34
2023/04/12 00:08:05;;;;;;;1.63;0.80;;;12.40;99.90;;;;;;5015671;28;20327;-33
2023/04/12 00:10:32;;;;;;;1.70;0.77;;;12.40;99.90;;;;;;5022896;28;20225;-34
2023/04/12 00:13:01;;;;;;;2.97;0.70;;;12.30;99.90;;;;;;5022129;28;20197;-34
2023/04/12 00:15:29;;;;;;;1.93;0.70;;;12.30;99.90;;;;;;5005974;28;20284;-34
2023/04/12 00:17:58;;;;;;;1.30;0.80;;;12.40;99.90;;;;;;5010637;28;20264;-34
2023/04/12 00:20:28;;;;;;;1.27;0.67;;;12.40;99.90;;;;;;5018427;28;20768;-34
2023/04/12 00:22:57;;;;;;;1.43;0.70;;;12.40;99.90;;;;;;5002590;28;20481;-34
2023/04/12 00:25:27;;;;;;;2.53;0.90;;;12.40;99.90;;;;;;5002981;28;20225;-34
2023/04/12 00:27:55;;;;;;;2.33;0.70;;;12.40;99.90;;;;;;5007562;28;20214;-34
2023/04/12 00:30:22;;;;;;;2.00;0.77;;;12.30;99.90;;;;;;5022314;28;20255;-34
2023/04/12 00:32:51;;;;;;;2.83;0.80;;;12.30;99.90;;;;;;5043861;28;20204;-34
2023/04/12 00:35:24;;;;;;;3.17;0.80;;;12.30;99.90;;;;;;5017101;28;20229;-33
2023/04/12 00:37:53;;;;;;;1.80;0.80;;;12.40;99.90;;;;;;5021797;28;20217;-34
2023/04/12 00:40:23;;;;;;;1.20;0.57;;;12.30;99.90;;;;;;5006969;28;20233;-34
2023/04/12 00:42:52;;;;;;;2.63;0.50;;;12.30;99.90;;;;;;5005797;28;20202;-34
2023/04/12 00:45:20;;;;;;;3.13;0.63;;;12.30;99.90;;;;;;5007427;28;20553;-34
2023/04/12 00:47:50;;;;;;;1.27;0.80;;;12.30;99.90;;;;;;5007111;28;20197;-33
2023/04/12 00:50:22;;;;;;;3.50;0.90;;;12.30;99.90;;;;;;5007230;28;20271;-34
2023/04/12 00:52:54;;;;;;;2.17;0.60;;;12.30;99.90;;;;;;5022528;28;20319;-34
2023/04/12 00:55:22;;;;;;;2.27;0.70;;;12.30;99.90;;;;;;5006096;28;20246;-34
2023/04/12 00:57:50;;;;;;;3.87;0.93;;;12.30;99.90;;;;;;5006851;28;20202;-34
2023/04/12 01:00:17;;;;;;;1.57;0.60;;;12.30;99.90;;;;;;5006808;28;20230;-34
2023/04/12 01:02:50;;;;;;;2.77;0.77;;;12.30;99.90;;;;;;5012512;28;20770;-34
2023/04/12 01:05:26;;;;;;;1.77;0.60;;;12.30;99.90;;;;;;5036356;28;20267;-34
2023/04/12 01:08:05;;;;;;;3.33;0.70;;;12.30;99.90;;;;;;5012967;28;20212;-34
2023/04/12 01:10:52;;;;;;;2.03;0.77;;;12.30;99.90;;;;;;5020485;28;20296;-34
2023/04/12 01:13:36;;;;;;;1.67;0.60;;;12.30;99.90;;;;;;5024477;28;20703;-34
2023/04/12 01:16:33;;;;;;;0.93;0.50;;;12.30;99.90;;;;;;5014134;28;20738;-34
2023/04/12 01:19:11;;;;;;;3.23;0.70;;;12.30;99.90;;;;;;5015212;28;20233;-34
2023/04/12 01:21:53;;;;;;;2.20;0.83;;;12.30;99.90;;;;;;5026231;28;20657;-34
2023/04/12 01:24:27;;;;;;;1.80;0.53;;;12.30;99.90;;;;;;5025212;28;20240;-33
2023/04/12 01:26:59;;;;;;;1.17;0.53;;;12.30;99.90;;;;;;5019430;28;20726;-34
2023/04/12 01:29:31;;;;;;;1.40;0.57;;;12.30;99.90;;;;;;5005115;28;21112;-33
2023/04/12 01:32:00;;;;;;;1.60;0.60;;;12.30;99.90;;;;;;5028296;28;20624;-33
2023/04/12 01:34:33;;;;;;;1.80;0.63;;;12.30;99.90;;;;;;5043730;28;20196;-33
2023/04/12 01:37:01;;;;;;;1.67;0.97;;;12.30;99.90;;;;;;5046173;28;21011;-33
2023/04/12 01:39:32;;;;;;;0.90;0.67;;;12.30;99.90;;;;;;5035430;28;20640;-33
2023/04/12 01:42:00;;;;;;;0.97;0.50;;;12.30;99.90;;;;;;5017147;28;20402;-33
2023/04/12 01:44:29;;;;;;;2.67;0.60;;;12.30;99.90;;;;;;5023461;28;20262;-33
2023/04/12 01:46:58;;;;;;;2.00;0.53;;;12.20;99.90;;;;;;5021401;28;20213;-33
2023/04/12 01:49:35;;;;;;;1.20;0.70;;;12.20;99.90;;;;;;5005588;28;20202;-34
2023/04/12 01:52:15;;;;;;;2.03;0.60;;;12.20;99.90;;;;;;5004682;28;20307;-33
2023/04/12 01:54:45;;;;;;;1.50;0.60;;;12.20;99.90;;;;;;5005494;28;20403;-33
2023/04/12 01:57:13;;;;;;;2.73;0.80;;;12.20;99.90;;;;;;5021587;28;20255;-33
2023/04/12 01:59:43;;;;;;;2.13;0.70;;;12.20;99.90;;;;;;5020388;28;20611;-33
2023/04/12 02:02:16;;;;;;;2.37;0.80;;;12.20;99.90;;;;;;5004420;28;20210;-33
2023/04/12 02:04:48;;;;;;;1.10;0.53;;;12.20;99.90;;;;;;5006260;28;20202;-33
2023/04/12 02:07:17;;;;;;;2.60;0.77;;;12.10;99.90;;;;;;5020184;28;20253;-33
2023/04/12 02:09:47;;;;;;;1.30;0.60;;;12.10;99.90;;;;;;5003441;28;20325;-33
2023/04/12 02:12:14;;;;;;;2.10;0.50;;;12.20;99.90;;;;;;5004417;28;20205;-33
2023/04/12 02:14:50;;;;;;;2.03;0.70;;;12.20;99.90;;;;;;5005583;28;20684;-33
2023/04/12 02:17:18;;;;;;;2.07;0.80;;;12.20;99.90;;;;;;5019948;28;20216;-33
2023/04/12 02:19:46;;;;;;;1.80;0.40;;;12.10;99.90;;;;;;5025609;28;20233;-33
2023/04/12 02:22:13;;;;;;;3.00;0.80;;;12.10;99.90;;;;;;5019330;28;20208;-34
2023/04/12 02:24:42;;;;;;;1.87;0.60;;;12.10;99.90;;;;;;5022696;28;20691;-33
2023/04/12 02:27:12;;;;;;;1.37;0.60;;;12.20;99.90;;;;;;5025218;28;20302;-33
2023/04/12 02:29:42;;;;;;;1.63;0.80;;;12.20;99.90;;;;;;5023302;28;20197;-33
2023/04/12 02:32:11;;;;;;;0.90;0.60;;;12.20;99.90;;;;;;5007194;28;20236;-33
2023/04/12 02:34:41;;;;;;;0.60;0.50;;;12.10;99.90;;;;;;5006372;28;20701;-33
2023/04/12 02:37:15;;;;;;;1.73;0.70;;;12.10;99.90;;;;;;5039292;28;20656;-33
2023/04/12 02:39:44;;;;;;;2.17;0.70;;;12.20;99.90;;;;;;5042391;28;20250;-33
2023/04/12 02:42:14;;;;;;;1.77;0.80;;;12.20;99.90;;;;;;5044846;28;20309;-33
2023/04/12 02:44:46;;;;;;;0.67;0.50;;;12.20;99.90;;;;;;5031750;28;20233;-33
2023/04/12 02:47:18;;;;;;;1.33;0.70;;;12.20;99.90;;;;;;5011785;28;20665;-33
2023/04/12 02:49:50;;;;;;;1.67;0.50;;;12.20;99.90;;;;;;5003672;28;20296;-33
2023/04/12 02:52:20;;;;;;;1.80;0.60;;;12.20;99.90;;;;;;5007078;28;20217;-33
2023/04/12 02:54:51;;;;;;;1.93;0.60;;;12.20;99.90;;;;;;5002379;28;20255;-33
2023/04/12 02:57:22;;;;;;;1.87;0.60;;;12.20;99.90;;;;;;5004947;28;20213;-33
2023/04/12 02:59:57;;;;;;;1.27;0.63;;;12.20;99.90;;;;;;5004713;28;20217;-33
2023/04/12 03:02:24;;;;;;;0.93;0.43;;;12.30;99.90;;;;;;5010533;28;20229;-33
2023/04/12 03:04:55;;;;;;;4.30;0.70;;;12.30;99.90;;;;;;5044623;28;20781;-33
2023/04/12 03:07:23;;;;;;;1.27;0.60;;;12.30;99.90;;;;;;5028803;28;20680;-33
2023/04/12 03:09:50;;;;;;;1.57;0.70;;;12.30;99.90;;;;;;5004500;28;20194;-33
2023/04/12 03:12:24;;;;;;;1.63;0.57;;;12.30;99.90;;;;;;5019338;28;20648;-33
2023/04/12 03:14:51;;;;;;;1.00;0.60;;;12.30;99.90;;;;;;5025495;28;20197;-33
2023/04/12 03:17:19;;;;;;;0.40;0.30;;;12.30;99.90;;;;;;5022992;28;20228;-33
2023/04/12 03:19:47;;;;;;;3.17;0.60;;;12.30;99.90;;;;;;5024076;28;20680;-34
2023/04/12 03:22:16;;;;;;;1.63;0.50;;;12.30;99.90;;;;;;5014912;28;20223;-34
2023/04/12 03:24:44;;;;;;;1.73;0.60;;;12.30;99.90;;;;;;5003842;28;20331;-34
2023/04/12 03:27:14;;;;;;;2.83;0.80;;;12.30;99.90;;;;;;5004915;28;20225;-34
2023/04/12 03:29:43;;;;;;;0.90;0.50;;;12.30;99.90;;;;;;5022109;28;20296;-34
2023/04/12 03:32:20;;;;;;;2.83;0.70;;;12.40;99.90;;;;;;5022776;28;20498;-33
2023/04/12 03:34:47;;;;;;;1.43;0.53;;;12.40;99.90;;;;;;5023872;28;20208;-34
2023/04/12 03:37:17;;;;;;;1.07;0.60;;;12.40;99.90;;;;;;5024028;28;20207;-34
2023/04/12 03:39:46;;;;;;;1.27;0.60;;;12.40;99.90;;;;;;5021119;28;20201;-34
2023/04/12 03:42:16;;;;;;;1.00;0.50;;;12.40;99.90;;;;;;5018369;28;20270;-33
2023/04/12 03:45:06;;;;;;;0.97;0.50;;;12.40;99.90;;;;;;5016076;28;20206;-34
2023/04/12 03:47:34;;;;;;;1.73;0.63;;;12.40;99.90;;;;;;5014675;28;20318;-33
2023/04/12 03:50:09;;;;;;;1.33;0.50;;;12.40;99.90;;;;;;5043516;28;20626;-35
2023/04/12 03:52:43;;;;;;;1.40;0.50;;;12.40;99.90;;;;;;5030012;28;20215;-34
2023/04/12 03:55:12;;;;;;;2.33;0.60;;;12.40;99.90;;;;;;5021427;28;20241;-34
2023/04/12 03:57:42;;;;;;;0.90;0.60;;;12.40;99.90;;;;;;5022896;28;20585;-34
2023/04/12 04:00:10;;;;;;;1.00;0.40;;;12.40;99.90;;;;;;5003999;28;20201;-34
2023/04/12 04:02:40;;;;;;;1.63;0.50;;;12.40;99.90;;;;;;5004057;28;20284;-34
2023/04/12 04:05:11;;;;;;;1.00;0.50;;;12.40;99.90;;;;;;5033242;28;20208;-34
2023/04/12 04:07:41;;;;;;;2.00;0.40;;;12.40;99.90;;;;;;5043676;28;20718;-34
2023/04/12 04:10:11;;;;;;;1.10;0.30;;;12.40;99.90;;;;;;5041311;28;20196;-34
2023/04/12 04:12:38;;;;;;;1.30;0.33;;;12.40;99.90;;;;;;5044215;28;20297;-34
2023/04/12 04:15:08;;;;;;;2.10;0.53;;;12.40;99.90;;;;;;5032110;28;20379;-34
2023/04/12 04:17:37;;;;;;;1.00;0.43;;;12.40;99.90;;;;;;5003759;28;20218;-34
2023/04/12 04:20:11;;;;;;;1.53;0.60;;;12.40;99.90;;;;;;5004011;28;20205;-34
2023/04/12 04:22:39;;;;;;;0.87;0.50;;;12.40;99.90;;;;;;5003808;28;20209;-34
2023/04/12 04:25:06;;;;;;;0.93;0.40;;;12.40;99.90;;;;;;5002746;28;20255;-34
2023/04/12 04:27:37;;;;;;;1.53;0.37;;;12.40;99.90;;;;;;5003719;28;20320;-34
2023/04/12 04:30:07;;;;;;;1.50;0.30;;;12.40;99.90;;;;;;5001812;28;20197;-34
2023/04/12 04:32:34;;;;;;;0.30;0.30;;;12.40;99.90;;;;;;5002735;28;20248;-33
2023/04/12 04:35:07;;;;;;;0.30;0.30;;;12.40;99.90;;;;;;5002080;28;20200;-33
2023/04/12 04:37:36;;;;;;;0.80;0.43;;;12.40;99.90;;;;;;5002507;28;20794;-33
2023/04/12 04:40:12;;;;;;;0.70;0.47;;;12.40;99.90;;;;;;5002697;28;20241;-33
2023/04/12 04:42:41;;;;;;;1.30;0.40;;;12.40;99.90;;;;;;5021169;28;20216;-33
2023/04/12 04:45:12;;;;;;;0.77;0.40;;;12.40;99.90;;;;;;5023088;28;20207;-33
2023/04/12 04:47:43;;;;;;;0.63;0.40;;;12.40;99.90;;;;;;5019951;28;20237;-33
2023/04/12 04:50:12;;;;;;;0.40;0.40;;;12.40;99.90;;;;;;5026380;28;20689;-33
2023/04/12 04:52:39;;;;;;;1.27;0.40;;;12.40;99.90;;;;;;5003531;28;20252;-33
2023/04/12 04:55:12;;;;;;;0.73;0.50;;;12.40;99.90;;;;;;5012597;28;20233;-33
2023/04/12 04:57:45;;;;;;;0.50;0.40;;;12.40;99.90;;;;;;5019021;28;20680;-33
2023/04/12 05:00:13;;;;;;;1.37;0.40;;;12.40;99.90;;;;;;5014288;28;20244;-35
2023/04/12 05:02:44;;;;;;;0.73;0.33;;;12.40;99.90;;;;;;5012992;28;20200;-33
2023/04/12 05:05:21;;;;;;;2.33;0.70;;;12.50;99.90;;;;;;5023025;28;20212;-33
2023/04/12 05:07:54;;;;;;;1.30;0.50;;;12.50;99.90;;;;;;5022071;28;20235;-36
2023/04/12 05:10:21;;;;;;;0.70;0.47;;;12.50;99.90;;;;;;5004586;28;20302;-34
2023/04/12 05:12:53;;;;;;;0.43;0.40;;;12.40;99.90;;;;;;5021432;28;20236;-34
2023/04/12 05:15:20;;;;;;;0.80;0.50;;;12.40;99.90;;;;;;5024790;28;20256;-34
2023/04/12 05:17:47;;;;;;;1.13;0.50;;;12.50;99.90;;;;;;5026548;28;20197;-34
2023/04/12 05:20:15;;;;;;;1.30;0.50;;;12.50;99.90;;;;;;5020961;28;20205;-34
2023/04/12 05:22:42;;;;;;;0.40;0.40;;;12.50;99.90;;;;;;5015212;28;20212;-35
2023/04/12 05:25:09;;;;;;;0.40;0.40;;;12.50;99.90;;;;;;4999804;28;20214;-34
2023/04/12 05:27:41;;;;;;;1.23;0.40;;;12.50;99.90;;;;;;5017728;28;20209;-35
2023/04/12 05:30:13;;;;;;;0.60;0.40;;;12.50;99.90;;;;;;5020376;28;20743;-34
2023/04/12 05:32:42;;;;;;;1.03;0.40;;;12.50;99.90;;;;;;5012976;28;20209;-34
2023/04/12 05:35:15;;;;;;;1.13;0.40;;;12.50;99.90;;;;;;5014572;28;20271;-34
2023/04/12 05:37:42;;;;;;;0.93;0.30;;;12.50;99.90;;;;;;5006701;28;20217;-34
2023/04/12 05:40:11;;;;;;;0.77;0.43;;;12.50;99.90;;;;;;5006162;28;20209;-34
2023/04/12 05:42:42;;;;;;;1.50;0.53;;;12.50;99.90;;;;;;5021582;28;20208;-34
2023/04/12 05:45:09;;;;;;;1.00;0.50;;;12.50;99.90;;;;;;5002950;28;20217;-34
2023/04/12 05:47:41;;;;;;;1.70;0.53;;;12.50;99.90;;;;;;5025713;28;20717;-34
2023/04/12 05:50:11;;;;;;;1.00;0.60;;;12.50;99.90;;;;;;5018533;28;20217;-35
2023/04/12 05:52:43;;;;;;;2.40;0.90;;;12.50;99.90;;;;;;5004122;28;20307;-34
2023/04/12 05:55:16;;;;;;;2.20;1.20;;;12.50;99.90;;;;;;5003085;28;20241;-35
2023/04/12 05:57:45;;;;;;;0.80;0.70;;;12.50;99.90;;;;;;5007172;28;20219;-34
2023/04/12 06:00:16;;;;;;;4.00;1.00;;;12.50;99.90;;;;;;5009320;28;20208;-34
2023/04/12 06:02:47;;;;;;;2.77;1.00;;;12.50;99.90;;;;;;5017768;28;20201;-34
2023/04/12 06:05:18;;;;;;;2.17;0.80;;;12.50;99.90;;;;;;5014181;28;20225;-34
2023/04/12 06:07:48;;;;;;;5.40;0.70;;;12.50;99.90;;;;;;5003969;28;20341;-34
2023/04/12 06:10:16;;;;;;;3.07;1.20;;;12.50;99.90;;;;;;5018746;28;20297;-34
2023/04/12 06:12:44;;;;;;;3.03;0.90;;;12.50;99.90;;;;;;5018972;28;20201;-34
2023/04/12 06:15:11;;;;;;;3.23;0.97;;;12.50;99.90;;;;;;5014088;28;20237;-34
2023/04/12 06:17:44;;;;;;;3.00;1.00;;;12.50;99.90;;;;;;5004268;28;20236;-34
2023/04/12 06:20:14;;;;;;;4.43;0.93;;;12.60;99.90;;;;;;5006954;28;20200;-34
2023/04/12 06:22:46;;;;;;;5.33;1.00;;;12.60;99.90;;;;;;5015603;28;20283;-34
2023/04/12 06:25:15;;;;;;;4.03;1.10;;;12.60;99.90;;;;;;5002871;28;20218;-34
2023/04/12 06:27:42;;;;;;;3.30;1.17;;;12.60;99.90;;;;;;5003839;28;20234;-34
2023/04/12 06:30:15;;;;;;;3.80;1.20;;;12.60;99.90;;;;;;5016530;28;20635;-34
2023/04/12 06:32:43;;;;;;;3.33;1.30;;;12.60;99.90;;;;;;5020313;28;20204;-34
2023/04/12 06:35:15;;;;;;;3.53;1.27;;;12.60;99.90;;;;;;5022983;28;20243;-34
2023/04/12 06:37:42;;;;;;;2.67;1.10;;;12.60;99.90;;;;;;5020621;28;20765;-34
2023/04/12 06:40:15;;;;;;;4.10;1.00;;;12.60;99.90;;;;;;5016208;28;20212;-34
2023/04/12 06:42:46;;;;;;;3.60;1.10;;;12.60;99.90;;;;;;5038080;28;20207;-34
2023/04/12 06:45:16;;;;;;;4.10;1.17;;;12.60;99.90;;;;;;5009208;28;20305;-34
2023/04/12 06:47:46;;;;;;;6.47;1.37;;;12.60;99.90;;;;;;5005384;28;20264;-34
2023/04/12 06:50:13;;;;;;;3.13;1.00;;;12.70;99.90;;;;;;5015320;28;20209;-34
2023/04/12 06:52:43;;;;;;;4.77;1.30;;;12.70;99.90;;;;;;5005857;28;20288;-34
2023/04/12 06:55:12;;;;;;;3.67;1.20;;;12.70;99.90;;;;;;5009775;28;20605;-34
2023/04/12 06:57:43;;;;;;;4.37;1.30;;;12.70;99.90;;;;;;5021092;28;20668;-34
2023/04/12 07:00:11;;;;;;;7.07;1.40;;;12.70;99.90;;;;;;5014614;28;20653;-34
2023/04/12 07:02:38;;;;;;;2.20;0.95;;;12.70;99.90;;;;;;4988719;28;20641;-33
2023/04/12 07:05:08;;;;;;;3.67;1.50;;;12.70;99.90;;;;;;5012526;28;20213;-34
2023/04/12 07:07:38;;;;;;;4.53;1.50;;;12.70;99.90;;;;;;5036421;28;20228;-34
2023/04/12 07:10:06;;;;;;;5.77;1.70;;;12.70;99.90;;;;;;5001757;28;20220;-34
2023/04/12 07:12:33;;;;;;;4.23;1.50;;;12.70;99.90;;;;;;5018930;28;20205;-34
2023/04/12 07:15:02;;;;;;;6.13;1.43;;;12.70;99.90;;;;;;5023161;28;20372;-34
2023/04/12 07:17:32;;;;;;;4.07;1.50;;;12.70;99.90;;;;;;5004772;28;20730;-34
2023/04/12 07:20:02;;;;;;;3.63;1.17;;;12.70;99.90;;;;;;5018810;28;20598;-34
2023/04/12 07:22:29;;;;;;;4.97;1.30;;;12.70;99.90;;;;;;5005045;28;20226;-34
2023/04/12 07:24:59;;;;;;;5.05;1.42;;;12.70;99.90;;;;;;5011657;28;20282;-34
2023/04/12 07:27:26;;;;;;;6.03;1.50;;;12.70;99.90;;;;;;5023754;28;20271;-33
2023/04/12 07:29:56;;;;;;;5.33;1.43;;;12.70;99.90;;;;;;5014644;28;20255;-34
2023/04/12 07:32:31;;;;;;;6.70;2.07;;;12.70;99.90;;;;;;5004411;28;20236;-34
2023/04/12 07:35:00;;;;;;;4.73;1.40;;;12.60;99.90;;;;;;5018694;28;20304;-34
2023/04/12 07:37:30;;;;;;;5.53;1.57;;;12.60;99.90;;;;;;5001925;28;20317;-34
2023/04/12 07:39:57;;;;;;;7.30;2.17;;;12.60;99.90;;;;;;5020196;28;21255;-33
2023/04/12 07:42:26;;;;;;;5.22;1.30;;;12.60;99.90;;;;;;5018749;28;20217;-34
2023/04/12 07:44:53;;;;;;;4.55;1.88;;;12.60;99.90;;;;;;5020449;28;20213;-34
2023/04/12 07:47:20;;;;;;;4.97;1.57;;;12.60;99.90;;;;;;5024138;28;20337;-35
2023/04/12 07:49:48;;;;;;;7.47;1.60;;;12.60;99.90;;;;;;5012849;28;20786;-35
2023/04/12 07:52:15;;;;;;;7.30;1.67;;;12.60;99.90;;;;;;5018372;28;20402;-35
2023/04/12 07:54:42;;;;;;;3.37;1.40;;;12.60;99.90;;;;;;5002764;28;20291;-35
2023/04/12 07:57:12;;;;;;;4.90;1.33;;;12.60;99.90;;;;;;5003871;28;20695;-36
2023/04/12 07:59:39;;;;;;;5.97;1.50;;;12.60;99.90;;;;;;5013071;28;20288;-37
2023/04/12 08:02:08;;;;;;;4.73;1.37;;;12.60;99.90;;;;;;5018097;28;20278;-36
2023/04/12 08:04:38;;;;;;;4.30;1.37;;;12.60;99.90;;;;;;5022292;28;20688;-36
2023/04/12 08:07:06;;;;;;;5.57;1.50;;;12.70;99.90;;;;;;5018592;28;20241;-35
2023/04/12 08:09:35;;;;;;;8.47;1.73;;;12.70;99.90;;;;;;5000323;28;20208;-35
2023/04/12 08:12:03;;;;;;;4.17;1.63;;;12.80;99.90;;;;;;5011755;28;20291;-35
2023/04/12 08:14:37;;;;;;;6.80;1.60;;;12.80;99.90;;;;;;5011824;28;20218;-35
2023/04/12 08:17:12;;;;;;;6.60;1.60;;;12.90;99.90;;;;;;5011375;28;20672;-35
2023/04/12 08:19:39;;;;;;;5.20;1.50;;;13.00;99.90;;;;;;5007931;28;20208;-36
2023/04/12 08:22:07;;;;;;;5.47;1.53;;;13.00;99.90;;;;;;5016947;28;20620;-35
2023/04/12 08:24:36;;;;;;;5.60;1.33;;;13.10;99.90;;;;;;5002890;28;20680;-34
2023/04/12 08:27:05;;;;;;;6.17;1.93;;;13.10;99.90;;;;;;5004061;28;20788;-33
2023/04/12 08:29:33;;;;;;;5.37;1.20;;;13.20;99.90;;;;;;5001701;28;20201;-34
2023/04/12 08:32:01;;;;;;;5.67;1.80;;;13.20;99.90;;;;;;5027831;28;20299;-34
2023/04/12 08:34:28;;;;;;;7.07;1.87;;;13.20;99.90;;;;;;5011320;28;20209;-34
2023/04/12 08:36:59;;;;;;;7.43;1.40;;;13.20;99.90;;;;;;5015695;28;20202;-34
2023/04/12 08:39:32;;;;;;;9.37;2.00;;;13.20;99.90;;;;;;5008956;28;20575;-34
2023/04/12 08:42:00;;;;;;;6.70;1.73;;;13.20;99.90;;;;;;5005662;28;20706;-34
2023/04/12 08:44:37;;;;;;;5.67;1.40;;;13.20;99.90;;;;;;5018033;28;20370;-33
2023/04/12 08:47:13;;;;;;;9.00;1.70;;;13.30;99.90;;;;;;5010551;28;20192;-34
2023/04/12 08:49:42;;;;;;;8.27;2.27;;;13.30;99.90;;;;;;5012780;28;20244;-34
2023/04/12 08:52:12;;;;;;;5.83;1.83;;;13.30;99.90;;;;;;5009169;28;20676;-34
2023/04/12 08:54:41;;;;;;;6.38;1.70;;;13.30;99.90;;;;;;5016655;28;20236;-34
2023/04/12 08:57:14;;;;;;;6.70;1.83;;;13.30;99.90;;;;;;5005233;28;20263;-34
2023/04/12 08:59:47;;;;;;;7.80;2.53;;;13.40;99.90;;;;;;5009402;28;20209;-34
2023/04/12 09:02:16;;;;;;;9.60;2.50;;;13.40;99.90;;;;;;5004639;28;20312;-34
2023/04/12 09:04:48;;;;;;;10.53;2.20;;;13.50;99.90;;;;;;5031826;28;20213;-33
2023/04/12 09:07:29;;;;;;;7.37;2.30;;;13.50;99.90;;;;;;5021794;28;20224;-35
2023/04/12 09:09:59;;;;;;;7.70;1.90;;;13.50;99.90;;;;;;5018153;28;20714;-34
2023/04/12 09:12:29;;;;;;;10.53;2.40;;;13.60;99.90;;;;;;5021574;28;20201;-34
2023/04/12 09:15:08;;;;;;;11.43;2.33;;;13.70;99.90;;;;;;5022151;28;20196;-33
2023/04/12 09:17:41;;;;;;;10.83;2.50;;;13.70;99.90;;;;;;5008504;28;20651;-33
2023/04/12 09:20:14;;;;;;;12.65;2.42;;;13.80;99.90;;;;;;5036511;28;20216;-34
2023/04/12 09:22:45;;;;;;;12.00;2.03;;;13.80;99.90;;;;;;5021072;28;20215;-34
2023/04/12 09:25:14;;;;;;;8.33;2.30;;;13.80;99.90;;;;;;5019424;28;20228;-34
2023/04/12 09:27:45;;;;;;;14.40;2.50;;;13.90;99.90;;;;;;5005174;28;20229;-34
2023/04/12 09:30:17;;;;;;;9.80;2.80;;;13.90;99.90;;;;;;5008868;28;20698;-33
2023/04/12 09:32:48;;;;;;;11.60;2.60;;;13.90;99.90;;;;;;5006639;28;20198;-33
2023/04/12 09:35:15;;;;;;;11.47;2.50;;;13.90;99.90;;;;;;5006349;28;20209;-33
2023/04/12 09:37:47;;;;;;;10.77;2.60;;;13.90;99.90;;;;;;5008383;28;20628;-34
2023/04/12 09:40:23;;;;;;;11.23;2.60;;;13.90;99.90;;;;;;5004109;28;20205;-34
2023/04/12 09:42:54;;;;;;;9.40;2.60;;;13.90;99.90;;;;;;5014620;28;20217;-34
2023/04/12 09:45:24;;;;;;;9.03;2.20;;;13.90;99.90;;;;;;5020700;28;20320;-34
2023/04/12 09:47:56;;;;;;;10.93;2.97;;;13.90;99.90;;;;;;5011410;28;20576;-34
2023/04/12 09:50:25;;;;;;;10.70;2.90;;;13.90;99.90;;;;;;5023346;28;20648;-33
2023/04/12 09:52:55;;;;;;;11.93;2.70;;;13.90;99.90;;;;;;5008322;28;20201;-34
2023/04/12 09:55:30;;;;;;;7.95;2.13;;;13.90;99.90;;;;;;5025981;28;20237;-34
2023/04/12 09:58:02;;;;;;;7.77;2.47;;;14.00;99.90;;;;;;5012293;28;20220;-33
2023/04/12 10:00:33;;;;;;;9.43;2.43;;;14.00;99.90;;;;;;5006794;28;20213;-33
2023/04/12 10:03:00;;;;;;;10.60;2.97;;;14.00;99.90;;;;;;5020218;28;20215;-34
2023/04/12 10:05:30;;;;;;;9.27;2.67;;;14.10;99.90;;;;;;5021823;28;20240;-34
2023/04/12 10:08:00;;;;;;;12.52;2.90;;;14.10;99.90;;;;;;5021667;28;20391;-34
2023/04/12 10:10:29;;;;;;;12.33;2.83;;;14.20;99.90;;;;;;5015504;28;20203;-34
2023/04/12 10:13:00;;;;;;;11.45;2.80;;;14.20;99.90;;;;;;5007626;28;20755;-33
2023/04/12 10:15:29;;;;;;;10.27;2.50;;;14.20;99.90;;;;;;5019726;28;20213;-34
2023/04/12 10:18:01;;;;;;;9.70;2.50;;;14.20;99.90;;;;;;5005980;28;20243;-34
2023/04/12 10:20:29;;;;;;;10.73;2.30;;;14.20;99.90;;;;;;5018548;28;20760;-33
2023/04/12 10:22:58;;;;;;;10.07;3.20;;;14.20;99.90;;;;;;5020535;28;20403;-33
2023/04/12 10:25:31;;;;;;;9.03;2.40;;;14.20;99.90;;;;;;5021411;28;20307;-34
2023/04/12 10:28:17;;;;;;;10.37;2.80;;;14.20;99.90;;;;;;5014437;28;20220;-33
2023/04/12 10:30:48;;;;;;;8.67;2.47;;;14.20;99.90;;;;;;5005114;28;20201;-34
2023/04/12 10:33:17;;;;;;;12.93;2.40;;;14.20;99.90;;;;;;5018491;28;20217;-34
2023/04/12 10:35:50;;;;;;;7.73;2.27;;;14.20;99.90;;;;;;5021661;28;20207;-34
2023/04/12 10:38:23;;;;;;;9.93;2.10;;;14.30;99.90;;;;;;5024392;28;20224;-34
2023/04/12 10:41:12;;;;;;;12.10;2.80;;;14.30;99.90;;;;;;5018982;28;21138;-33
2023/04/12 10:43:45;;;;;;;9.03;2.57;;;14.30;99.90;;;;;;5018704;28;20644;-33
2023/04/12 10:46:37;;;;;;;9.00;2.23;;;14.30;99.90;;;;;;5037990;28;20217;-34
2023/04/12 10:49:17;;;;;;;10.40;2.63;;;14.40;99.90;;;;;;5016031;28;20602;-33
2023/04/12 10:52:05;;;;;;;9.23;2.50;;;14.40;99.90;;;;;;5014657;28;20248;-34
2023/04/12 10:54:36;;;;;;;7.47;2.20;;;14.40;99.90;;;;;;5012089;28;20633;-33
2023/04/12 10:57:04;;;;;;;9.27;2.35;;;14.40;99.90;;;;;;5013540;28;20291;-34
2023/04/12 10:59:51;;;;;;;7.25;2.03;;;14.40;99.90;;;;;;5022646;28;20216;-34
2023/04/12 11:02:18;;;;;;;8.23;2.00;;;14.40;99.90;;;;;;5010950;28;20274;-34
2023/04/12 11:05:13;;;;;;;5.65;2.20;;;14.40;99.90;;;;;;5016810;28;20233;-33
2023/04/12 11:07:41;;;;;;;6.73;1.90;;;14.30;99.90;;;;;;5010712;28;20696;-34
2023/04/12 11:10:14;;;;;;;7.83;2.97;;;14.30;99.90;;;;;;5021535;28;20205;-34
2023/04/12 11:12:48;;;;;;;6.13;2.58;;;14.30;99.90;;;;;;5008656;28;20281;-34
2023/04/12 11:15:18;;;;;;;9.00;3.50;;;14.20;99.90;;;;;;5012915;28;20303;-34
2023/04/12 11:17:59;;;;;;;5.93;2.70;;;14.20;99.90;;;;;;5002917;28;20205;-34
2023/04/12 11:20:30;;;;;;;8.33;3.20;;;14.30;99.90;;;;;;5017075;28;20197;-34
2023/04/12 11:22:57;;;;;;;6.20;3.00;;;14.20;99.90;;;;;;5011977;28;20205;-34
2023/04/12 11:25:27;;;;;;;10.30;3.17;;;14.30;99.90;;;;;;5017670;28;20212;-34
2023/04/12 11:27:59;;;;;;;6.90;2.80;;;14.30;99.90;;;;;;5014250;28;20272;-34
2023/04/12 11:30:26;;;;;;;11.80;3.47;;;14.20;99.90;;;;;;5019774;28;20548;-34
2023/04/12 11:32:58;;;;;;;10.97;2.40;;;14.20;99.90;;;;;;5021869;28;20213;-35
2023/04/12 11:35:31;;;;;;;8.35;2.35;;;14.30;99.90;;;;;;5032158;28;20299;-35
2023/04/12 11:37:59;;;;;;;10.25;2.78;;;14.30;99.90;;;;;;5020666;28;20673;-35
2023/04/12 11:40:26;;;;;;;8.60;2.53;;;14.30;99.90;;;;;;5021112;28;20201;-35
2023/04/12 11:42:56;;;;;;;9.00;2.37;;;14.30;99.90;;;;;;5019385;28;20213;-35
2023/04/12 11:45:28;;;;;;;10.00;2.10;;;14.30;99.90;;;;;;5010697;28;20838;-35
2023/04/12 11:47:58;;;;;;;11.57;2.20;;;14.30;99.90;;;;;;5012499;28;20296;-35
2023/04/12 11:50:32;;;;;;;11.97;2.40;;;14.30;99.90;;;;;;5010766;28;20220;-35
2023/04/12 11:53:10;;;;;;;7.37;2.20;;;14.40;99.90;;;;;;5010446;28;20663;-35
2023/04/12 11:55:37;;;;;;;9.73;1.80;;;14.40;99.90;;;;;;5015844;28;20240;-35
2023/04/12 11:58:07;;;;;;;12.70;2.95;;;14.50;99.90;;;;;;5018390;28;20697;-35
2023/04/12 12:00:35;;;;;;;9.27;2.17;;;14.50;99.90;;;;;;5032387;28;20252;-35
2023/04/12 12:03:05;;;;;;;8.47;2.27;;;14.50;99.90;;;;;;5012161;28;20707;-35
2023/04/12 12:05:43;;;;;;;7.82;1.95;;;14.60;99.90;;;;;;5002150;28;20289;-35
2023/04/12 12:08:11;;;;;;;6.55;2.17;;;14.60;99.90;;;;;;5031143;28;20201;-35
2023/04/12 12:10:39;;;;;;;7.80;2.25;;;14.60;99.90;;;;;;5033755;28;20236;-35
2023/04/12 12:13:44;;;;;;;10.40;2.43;;;14.60;99.90;;;;;;5011054;28;20205;-35
2023/04/12 12:16:20;;;;;;;4.53;1.27;;;14.60;99.90;;;;;;5002346;28;20198;-36
2023/04/12 12:18:48;;;;;;;9.10;2.03;;;14.60;99.90;;;;;;5029010;28;20231;-34
2023/04/12 12:21:27;;;;;;;5.90;1.70;;;14.50;99.90;;;;;;5015732;28;20216;-34
2023/04/12 12:23:57;;;;;;;6.27;1.50;;;14.30;99.90;;;;;;5006483;28;20544;-34
2023/04/12 12:26:29;;;;;;;3.13;1.30;;;14.10;99.90;;;;;;5006571;28;20704;-34
2023/04/12 12:28:59;;;;;;;4.57;1.00;;;13.90;99.90;;;;;;5008724;28;20221;-34
2023/04/12 12:31:32;;;;;;;1.53;0.70;;;13.70;99.90;;;;;;5006986;28;20228;-33
2023/04/12 12:34:02;;;;;;;1.53;0.50;;;13.50;99.90;;;;;;5014943;28;20216;-34
2023/04/12 12:36:37;;;;;;;0.93;0.33;;;13.30;99.90;;;;;;5023653;28;20236;-35
2023/04/12 12:39:09;;;;;;;1.80;0.60;;;13.20;99.90;;;;;;5013281;28;20239;-34
2023/04/12 12:41:40;;;;;;;3.73;0.60;;;13.10;99.90;;;;;;5020915;28;20636;-34
2023/04/12 12:44:09;;;;;;;2.17;0.60;;;13.00;99.90;;;;;;5001799;28;20295;-34
2023/04/12 12:46:39;;;;;;;4.97;1.27;;;12.90;99.90;;;;;;5020013;28;20253;-34
2023/04/12 12:49:25;;;;;;;7.83;1.07;;;12.90;99.90;;;;;;5011387;28;20707;-34
2023/04/12 12:51:52;;;;;;;2.40;0.82;;;12.90;99.90;;;;;;5027210;28;20205;-34
2023/04/12 12:54:22;;;;;;;7.83;1.10;;;12.80;99.90;;;;;;5011571;28;20325;-34
2023/04/12 12:57:12;;;;;;;7.20;1.17;;;12.90;99.90;;;;;;5019284;28;20201;-34
2023/04/12 12:59:41;;;;;;;8.83;1.27;;;12.90;99.90;;;;;;5004378;28;20320;-35
2023/04/12 13:02:11;;;;;;;4.93;0.93;;;12.90;99.90;;;;;;5018284;28;20250;-34
2023/04/12 13:04:39;;;;;;;6.00;1.23;;;12.90;99.90;;;;;;5016611;28;20223;-34